sensor_id;sensor_type;location;lat;lon;timestamp;temperature;humidity
47338;DHT22;33069;51.970;5.892;2023-08-07T00:00:06;13.30;91.50
47338;DHT22;33069;51.970;5.892;2023-08-07T00:02:55;13.20;91.50
47338;DHT22;33069;51.970;5.892;2023-08-07T00:05:41;13.20;91.70
47338;DHT22;33069;51.970;5.892;2023-08-07T00:08:29;13.30;91.70
47338;DHT22;33069;51.970;5.892;2023-08-07T00:11:17;13.20;91.90
47338;DHT22;33069;51.970;5.892;2023-08-07T00:14:03;13.20;92.00
47338;DHT22;33069;51.970;5.892;2023-08-07T00:16:49;13.20;92.00
47338;DHT22;33069;51.970;5.892;2023-08-07T00:19:35;13.10;92.10
47338;DHT22;33069;51.970;5.892;2023-08-07T00:22:20;13.10;92.20
47338;DHT22;33069;51.970;5.892;2023-08-07T00:25:07;13.00;92.20
47338;DHT22;33069;51.970;5.892;2023-08-07T00:27:53;13.00;92.30
47338;DHT22;33069;51.970;5.892;2023-08-07T00:30:39;13.00;92.30
47338;DHT22;33069;51.970;5.892;2023-08-07T00:33:25;12.90;92.20
47338;DHT22;33069;51.970;5.892;2023-08-07T00:36:11;13.00;92.30
47338;DHT22;33069;51.970;5.892;2023-08-07T00:38:57;13.00;92.20
47338;DHT22;33069;51.970;5.892;2023-08-07T00:41:43;13.10;92.30
47338;DHT22;33069;51.970;5.892;2023-08-07T00:44:29;13.00;92.30
47338;DHT22;33069;51.970;5.892;2023-08-07T00:47:15;13.00;92.20
47338;DHT22;33069;51.970;5.892;2023-08-07T00:50:02;13.00;92.20
47338;DHT22;33069;51.970;5.892;2023-08-07T00:52:49;13.00;92.00
47338;DHT22;33069;51.970;5.892;2023-08-07T00:55:35;13.10;92.10
47338;DHT22;33069;51.970;5.892;2023-08-07T00:58:21;13.00;92.00
47338;DHT22;33069;51.970;5.892;2023-08-07T01:01:07;13.00;92.00
47338;DHT22;33069;51.970;5.892;2023-08-07T01:03:54;13.00;91.80
47338;DHT22;33069;51.970;5.892;2023-08-07T01:06:40;13.00;91.90
47338;DHT22;33069;51.970;5.892;2023-08-07T01:09:27;13.00;91.90
47338;DHT22;33069;51.970;5.892;2023-08-07T01:12:19;13.00;91.80
47338;DHT22;33069;51.970;5.892;2023-08-07T01:15:16;12.90;91.60
47338;DHT22;33069;51.970;5.892;2023-08-07T01:18:03;13.00;91.50
47338;DHT22;33069;51.970;5.892;2023-08-07T01:20:50;12.90;91.50
47338;DHT22;33069;51.970;5.892;2023-08-07T01:23:36;12.90;91.40
47338;DHT22;33069;51.970;5.892;2023-08-07T01:26:22;12.90;91.30
47338;DHT22;33069;51.970;5.892;2023-08-07T01:29:21;12.90;91.30
47338;DHT22;33069;51.970;5.892;2023-08-07T01:32:11;13.00;91.40
47338;DHT22;33069;51.970;5.892;2023-08-07T01:35:02;12.90;91.30
47338;DHT22;33069;51.970;5.892;2023-08-07T01:37:48;12.90;91.30
47338;DHT22;33069;51.970;5.892;2023-08-07T01:40:37;13.00;91.20
47338;DHT22;33069;51.970;5.892;2023-08-07T01:43:24;13.00;91.10
47338;DHT22;33069;51.970;5.892;2023-08-07T01:46:11;13.10;91.20
47338;DHT22;33069;51.970;5.892;2023-08-07T01:48:57;13.10;91.10
47338;DHT22;33069;51.970;5.892;2023-08-07T01:51:43;13.10;91.10
47338;DHT22;33069;51.970;5.892;2023-08-07T01:54:29;13.10;91.00
47338;DHT22;33069;51.970;5.892;2023-08-07T01:57:14;13.20;91.00
47338;DHT22;33069;51.970;5.892;2023-08-07T02:00:00;13.10;90.80
47338;DHT22;33069;51.970;5.892;2023-08-07T02:02:47;13.20;90.80
47338;DHT22;33069;51.970;5.892;2023-08-07T02:05:33;13.20;90.90
47338;DHT22;33069;51.970;5.892;2023-08-07T02:08:19;13.20;90.90
47338;DHT22;33069;51.970;5.892;2023-08-07T02:11:05;13.20;90.80
47338;DHT22;33069;51.970;5.892;2023-08-07T02:13:51;13.30;90.90
47338;DHT22;33069;51.970;5.892;2023-08-07T02:16:37;13.20;90.90
47338;DHT22;33069;51.970;5.892;2023-08-07T02:19:23;13.20;90.80
47338;DHT22;33069;51.970;5.892;2023-08-07T02:22:09;13.30;90.80
47338;DHT22;33069;51.970;5.892;2023-08-07T02:24:55;13.30;90.60
47338;DHT22;33069;51.970;5.892;2023-08-07T02:27:41;13.30;90.50
47338;DHT22;33069;51.970;5.892;2023-08-07T02:30:27;13.30;90.40
47338;DHT22;33069;51.970;5.892;2023-08-07T02:33:13;13.30;90.60
47338;DHT22;33069;51.970;5.892;2023-08-07T02:35:59;13.30;90.80
47338;DHT22;33069;51.970;5.892;2023-08-07T02:38:45;13.20;91.00
47338;DHT22;33069;51.970;5.892;2023-08-07T02:41:31;13.20;91.20
47338;DHT22;33069;51.970;5.892;2023-08-07T02:44:17;13.20;91.30
47338;DHT22;33069;51.970;5.892;2023-08-07T02:47:03;13.20;91.30
47338;DHT22;33069;51.970;5.892;2023-08-07T02:49:49;13.20;91.40
47338;DHT22;33069;51.970;5.892;2023-08-07T02:52:35;13.10;91.50
47338;DHT22;33069;51.970;5.892;2023-08-07T02:55:21;13.10;91.60
47338;DHT22;33069;51.970;5.892;2023-08-07T02:58:07;13.00;91.60
47338;DHT22;33069;51.970;5.892;2023-08-07T03:00:53;13.00;91.70
47338;DHT22;33069;51.970;5.892;2023-08-07T03:03:39;13.00;91.80
47338;DHT22;33069;51.970;5.892;2023-08-07T03:06:25;13.10;91.90
47338;DHT22;33069;51.970;5.892;2023-08-07T03:09:11;13.00;91.90
47338;DHT22;33069;51.970;5.892;2023-08-07T03:11:57;13.00;91.90
47338;DHT22;33069;51.970;5.892;2023-08-07T03:14:48;13.00;92.00
47338;DHT22;33069;51.970;5.892;2023-08-07T03:17:34;13.10;92.00
47338;DHT22;33069;51.970;5.892;2023-08-07T03:20:20;13.10;92.10
47338;DHT22;33069;51.970;5.892;2023-08-07T03:23:06;13.10;92.10
47338;DHT22;33069;51.970;5.892;2023-08-07T03:26:05;13.00;92.10
47338;DHT22;33069;51.970;5.892;2023-08-07T03:28:52;13.10;92.20
47338;DHT22;33069;51.970;5.892;2023-08-07T03:31:37;12.90;92.20
47338;DHT22;33069;51.970;5.892;2023-08-07T03:34:23;13.00;92.20
47338;DHT22;33069;51.970;5.892;2023-08-07T03:37:09;13.00;92.20
47338;DHT22;33069;51.970;5.892;2023-08-07T03:39:55;13.00;92.30
47338;DHT22;33069;51.970;5.892;2023-08-07T03:42:41;12.90;92.30
47338;DHT22;33069;51.970;5.892;2023-08-07T03:45:27;12.90;92.30
47338;DHT22;33069;51.970;5.892;2023-08-07T03:48:13;12.80;92.30
47338;DHT22;33069;51.970;5.892;2023-08-07T03:51:06;12.80;92.30
47338;DHT22;33069;51.970;5.892;2023-08-07T03:53:54;12.90;92.40
47338;DHT22;33069;51.970;5.892;2023-08-07T03:56:39;12.90;92.40
47338;DHT22;33069;51.970;5.892;2023-08-07T03:59:25;12.90;92.40
47338;DHT22;33069;51.970;5.892;2023-08-07T04:02:11;12.90;92.40
47338;DHT22;33069;51.970;5.892;2023-08-07T04:04:57;13.00;92.30
47338;DHT22;33069;51.970;5.892;2023-08-07T04:07:43;12.90;92.30
47338;DHT22;33069;51.970;5.892;2023-08-07T04:10:29;13.00;92.20
47338;DHT22;33069;51.970;5.892;2023-08-07T04:13:15;13.00;92.30
47338;DHT22;33069;51.970;5.892;2023-08-07T04:16:01;13.00;92.20
47338;DHT22;33069;51.970;5.892;2023-08-07T04:18:51;13.10;92.20
47338;DHT22;33069;51.970;5.892;2023-08-07T04:21:37;13.10;92.20
47338;DHT22;33069;51.970;5.892;2023-08-07T04:24:22;13.10;92.10
47338;DHT22;33069;51.970;5.892;2023-08-07T04:27:08;13.10;92.10
47338;DHT22;33069;51.970;5.892;2023-08-07T04:29:55;13.10;92.10
47338;DHT22;33069;51.970;5.892;2023-08-07T04:32:40;13.20;92.00
47338;DHT22;33069;51.970;5.892;2023-08-07T04:35:26;13.10;92.00
47338;DHT22;33069;51.970;5.892;2023-08-07T04:38:13;13.20;92.10
47338;DHT22;33069;51.970;5.892;2023-08-07T04:41:00;13.20;92.10
47338;DHT22;33069;51.970;5.892;2023-08-07T04:43:46;13.10;92.10
47338;DHT22;33069;51.970;5.892;2023-08-07T04:46:33;13.10;92.10
47338;DHT22;33069;51.970;5.892;2023-08-07T04:49:19;13.20;92.10
47338;DHT22;33069;51.970;5.892;2023-08-07T04:52:05;13.10;92.10
47338;DHT22;33069;51.970;5.892;2023-08-07T04:54:51;13.20;92.10
47338;DHT22;33069;51.970;5.892;2023-08-07T04:57:37;13.20;92.20
47338;DHT22;33069;51.970;5.892;2023-08-07T05:00:24;13.20;92.30
47338;DHT22;33069;51.970;5.892;2023-08-07T05:03:10;13.20;92.30
47338;DHT22;33069;51.970;5.892;2023-08-07T05:06:00;13.20;92.30
47338;DHT22;33069;51.970;5.892;2023-08-07T05:08:46;13.20;92.40
47338;DHT22;33069;51.970;5.892;2023-08-07T05:11:32;13.20;92.30
47338;DHT22;33069;51.970;5.892;2023-08-07T05:14:19;13.20;92.30
47338;DHT22;33069;51.970;5.892;2023-08-07T05:17:05;13.30;92.30
47338;DHT22;33069;51.970;5.892;2023-08-07T05:19:51;13.30;92.30
47338;DHT22;33069;51.970;5.892;2023-08-07T05:22:37;13.30;92.30
47338;DHT22;33069;51.970;5.892;2023-08-07T05:25:23;13.30;92.30
47338;DHT22;33069;51.970;5.892;2023-08-07T05:28:09;13.40;92.30
47338;DHT22;33069;51.970;5.892;2023-08-07T05:30:55;13.30;92.20
47338;DHT22;33069;51.970;5.892;2023-08-07T05:33:41;13.40;92.20
47338;DHT22;33069;51.970;5.892;2023-08-07T05:36:27;13.40;92.10
47338;DHT22;33069;51.970;5.892;2023-08-07T05:39:14;13.40;92.10
47338;DHT22;33069;51.970;5.892;2023-08-07T05:41:59;13.40;92.10
47338;DHT22;33069;51.970;5.892;2023-08-07T05:44:45;13.40;92.10
47338;DHT22;33069;51.970;5.892;2023-08-07T05:47:32;13.50;92.10
47338;DHT22;33069;51.970;5.892;2023-08-07T05:50:18;13.50;92.10
47338;DHT22;33069;51.970;5.892;2023-08-07T05:53:04;13.50;92.10
47338;DHT22;33069;51.970;5.892;2023-08-07T05:55:50;13.50;92.00
47338;DHT22;33069;51.970;5.892;2023-08-07T05:58:36;13.50;91.90
47338;DHT22;33069;51.970;5.892;2023-08-07T06:01:22;13.60;91.80
47338;DHT22;33069;51.970;5.892;2023-08-07T06:04:08;13.60;91.80
47338;DHT22;33069;51.970;5.892;2023-08-07T06:06:54;13.60;91.70
47338;DHT22;33069;51.970;5.892;2023-08-07T06:09:40;13.60;91.60
47338;DHT22;33069;51.970;5.892;2023-08-07T06:12:26;13.70;91.40
47338;DHT22;33069;51.970;5.892;2023-08-07T06:15:13;13.70;91.40
47338;DHT22;33069;51.970;5.892;2023-08-07T06:17:59;13.70;91.20
47338;DHT22;33069;51.970;5.892;2023-08-07T06:20:45;13.70;91.00
47338;DHT22;33069;51.970;5.892;2023-08-07T06:23:31;13.70;90.90
47338;DHT22;33069;51.970;5.892;2023-08-07T06:26:17;13.70;90.70
47338;DHT22;33069;51.970;5.892;2023-08-07T06:29:03;13.70;90.30
47338;DHT22;33069;51.970;5.892;2023-08-07T06:31:49;13.80;90.40
47338;DHT22;33069;51.970;5.892;2023-08-07T06:34:35;13.70;90.20
47338;DHT22;33069;51.970;5.892;2023-08-07T06:37:21;13.80;90.30
47338;DHT22;33069;51.970;5.892;2023-08-07T06:40:07;13.90;90.20
47338;DHT22;33069;51.970;5.892;2023-08-07T06:42:53;13.80;90.20
47338;DHT22;33069;51.970;5.892;2023-08-07T06:45:40;13.90;90.20
47338;DHT22;33069;51.970;5.892;2023-08-07T06:48:26;13.90;89.80
47338;DHT22;33069;51.970;5.892;2023-08-07T06:51:12;14.00;89.70
47338;DHT22;33069;51.970;5.892;2023-08-07T06:53:58;14.00;89.60
47338;DHT22;33069;51.970;5.892;2023-08-07T06:56:43;14.20;89.40
47338;DHT22;33069;51.970;5.892;2023-08-07T06:59:30;14.30;89.20
47338;DHT22;33069;51.970;5.892;2023-08-07T07:02:16;14.50;89.00
47338;DHT22;33069;51.970;5.892;2023-08-07T07:05:02;14.40;88.10
47338;DHT22;33069;51.970;5.892;2023-08-07T07:07:48;14.50;88.10
47338;DHT22;33069;51.970;5.892;2023-08-07T07:10:34;14.60;87.80
47338;DHT22;33069;51.970;5.892;2023-08-07T07:13:20;14.70;87.70
47338;DHT22;33069;51.970;5.892;2023-08-07T07:16:06;14.70;87.30
47338;DHT22;33069;51.970;5.892;2023-08-07T07:18:54;14.70;87.20
47338;DHT22;33069;51.970;5.892;2023-08-07T07:21:41;14.80;86.80
47338;DHT22;33069;51.970;5.892;2023-08-07T07:24:27;14.90;86.90
47338;DHT22;33069;51.970;5.892;2023-08-07T07:27:13;14.90;86.60
47338;DHT22;33069;51.970;5.892;2023-08-07T07:29:59;14.90;86.70
47338;DHT22;33069;51.970;5.892;2023-08-07T07:32:46;15.00;86.30
47338;DHT22;33069;51.970;5.892;2023-08-07T07:35:32;14.90;85.70
47338;DHT22;33069;51.970;5.892;2023-08-07T07:38:22;15.00;85.80
47338;DHT22;33069;51.970;5.892;2023-08-07T07:41:08;14.90;85.90
47338;DHT22;33069;51.970;5.892;2023-08-07T07:43:56;14.80;85.80
47338;DHT22;33069;51.970;5.892;2023-08-07T07:46:43;14.90;85.40
47338;DHT22;33069;51.970;5.892;2023-08-07T07:49:28;15.10;85.20
47338;DHT22;33069;51.970;5.892;2023-08-07T07:52:15;15.40;85.00
47338;DHT22;33069;51.970;5.892;2023-08-07T07:55:01;15.50;83.20
47338;DHT22;33069;51.970;5.892;2023-08-07T07:57:47;15.50;83.80
47338;DHT22;33069;51.970;5.892;2023-08-07T08:00:33;15.50;83.30
47338;DHT22;33069;51.970;5.892;2023-08-07T08:03:19;15.50;83.20
47338;DHT22;33069;51.970;5.892;2023-08-07T08:06:06;15.50;83.30
47338;DHT22;33069;51.970;5.892;2023-08-07T08:08:52;15.30;82.10
47338;DHT22;33069;51.970;5.892;2023-08-07T08:11:38;15.20;81.70
47338;DHT22;33069;51.970;5.892;2023-08-07T08:14:24;15.20;80.70
47338;DHT22;33069;51.970;5.892;2023-08-07T08:17:10;15.20;80.10
47338;DHT22;33069;51.970;5.892;2023-08-07T08:19:56;15.50;81.20
47338;DHT22;33069;51.970;5.892;2023-08-07T08:22:42;15.40;80.70
47338;DHT22;33069;51.970;5.892;2023-08-07T08:25:28;15.30;80.20
47338;DHT22;33069;51.970;5.892;2023-08-07T08:28:14;15.40;80.20
47338;DHT22;33069;51.970;5.892;2023-08-07T08:31:00;15.50;80.00
47338;DHT22;33069;51.970;5.892;2023-08-07T08:33:46;15.50;78.10
47338;DHT22;33069;51.970;5.892;2023-08-07T08:36:32;15.40;77.70
47338;DHT22;33069;51.970;5.892;2023-08-07T08:39:18;15.60;77.40
47338;DHT22;33069;51.970;5.892;2023-08-07T08:42:04;15.80;77.60
47338;DHT22;33069;51.970;5.892;2023-08-07T08:44:55;15.90;76.80
47338;DHT22;33069;51.970;5.892;2023-08-07T08:47:42;15.70;76.40
47338;DHT22;33069;51.970;5.892;2023-08-07T08:50:32;15.70;79.90
47338;DHT22;33069;51.970;5.892;2023-08-07T08:53:20;15.00;80.80
47338;DHT22;33069;51.970;5.892;2023-08-07T08:56:07;14.40;84.20
47338;DHT22;33069;51.970;5.892;2023-08-07T08:58:53;14.40;85.70
47338;DHT22;33069;51.970;5.892;2023-08-07T09:01:39;14.40;86.40
47338;DHT22;33069;51.970;5.892;2023-08-07T09:04:25;14.50;87.00
47338;DHT22;33069;51.970;5.892;2023-08-07T09:07:14;14.40;86.30
47338;DHT22;33069;51.970;5.892;2023-08-07T09:10:02;14.50;85.90
47338;DHT22;33069;51.970;5.892;2023-08-07T09:13:01;14.60;85.70
47338;DHT22;33069;51.970;5.892;2023-08-07T09:15:50;14.70;85.90
47338;DHT22;33069;51.970;5.892;2023-08-07T09:18:37;14.80;84.90
47338;DHT22;33069;51.970;5.892;2023-08-07T09:21:23;15.20;85.30
47338;DHT22;33069;51.970;5.892;2023-08-07T09:24:10;15.30;84.20
47338;DHT22;33069;51.970;5.892;2023-08-07T09:26:57;15.30;81.60
47338;DHT22;33069;51.970;5.892;2023-08-07T09:29:46;15.60;81.60
47338;DHT22;33069;51.970;5.892;2023-08-07T09:32:32;16.00;81.10
47338;DHT22;33069;51.970;5.892;2023-08-07T09:35:21;16.20;78.80
47338;DHT22;33069;51.970;5.892;2023-08-07T09:38:07;16.30;76.60
47338;DHT22;33069;51.970;5.892;2023-08-07T09:40:53;16.10;75.00
47338;DHT22;33069;51.970;5.892;2023-08-07T09:43:42;15.90;75.80
47338;DHT22;33069;51.970;5.892;2023-08-07T09:46:28;15.80;75.60
47338;DHT22;33069;51.970;5.892;2023-08-07T09:49:17;15.80;76.40
47338;DHT22;33069;51.970;5.892;2023-08-07T09:52:07;15.90;75.00
47338;DHT22;33069;51.970;5.892;2023-08-07T09:54:57;16.10;75.30
47338;DHT22;33069;51.970;5.892;2023-08-07T09:57:43;16.30;76.30
47338;DHT22;33069;51.970;5.892;2023-08-07T10:00:36;16.10;74.30
47338;DHT22;33069;51.970;5.892;2023-08-07T10:03:23;16.30;75.50
47338;DHT22;33069;51.970;5.892;2023-08-07T10:06:10;16.30;73.90
47338;DHT22;33069;51.970;5.892;2023-08-07T10:08:57;16.40;74.00
47338;DHT22;33069;51.970;5.892;2023-08-07T10:11:45;16.30;71.90
47338;DHT22;33069;51.970;5.892;2023-08-07T10:14:31;16.30;71.00
47338;DHT22;33069;51.970;5.892;2023-08-07T10:17:18;16.50;71.90
47338;DHT22;33069;51.970;5.892;2023-08-07T10:20:06;16.80;71.40
47338;DHT22;33069;51.970;5.892;2023-08-07T10:22:57;16.90;72.90
47338;DHT22;33069;51.970;5.892;2023-08-07T10:25:46;16.70;70.20
47338;DHT22;33069;51.970;5.892;2023-08-07T10:28:37;16.80;70.80
47338;DHT22;33069;51.970;5.892;2023-08-07T10:31:25;16.80;71.20
47338;DHT22;33069;51.970;5.892;2023-08-07T10:34:12;16.70;71.90
47338;DHT22;33069;51.970;5.892;2023-08-07T10:36:58;16.50;70.70
47338;DHT22;33069;51.970;5.892;2023-08-07T10:40:03;16.30;70.70
47338;DHT22;33069;51.970;5.892;2023-08-07T10:45:51;16.30;71.50
47338;DHT22;33069;51.970;5.892;2023-08-07T10:48:49;15.90;73.80
47338;DHT22;33069;51.970;5.892;2023-08-07T10:51:39;15.70;75.50
47338;DHT22;33069;51.970;5.892;2023-08-07T10:54:25;15.80;76.00
47338;DHT22;33069;51.970;5.892;2023-08-07T10:57:12;16.00;75.10
47338;DHT22;33069;51.970;5.892;2023-08-07T11:00:03;16.10;73.90
47338;DHT22;33069;51.970;5.892;2023-08-07T11:02:53;16.30;73.40
47338;DHT22;33069;51.970;5.892;2023-08-07T11:05:39;16.30;72.90
47338;DHT22;33069;51.970;5.892;2023-08-07T11:08:25;16.30;72.40
47338;DHT22;33069;51.970;5.892;2023-08-07T11:11:11;16.50;72.00
47338;DHT22;33069;51.970;5.892;2023-08-07T11:13:57;16.50;70.70
47338;DHT22;33069;51.970;5.892;2023-08-07T11:16:45;16.70;70.80
47338;DHT22;33069;51.970;5.892;2023-08-07T11:19:31;16.70;70.60
47338;DHT22;33069;51.970;5.892;2023-08-07T11:22:18;17.00;70.20
47338;DHT22;33069;51.970;5.892;2023-08-07T11:25:05;17.00;68.30
47338;DHT22;33069;51.970;5.892;2023-08-07T11:27:55;17.10;67.00
47338;DHT22;33069;51.970;5.892;2023-08-07T11:30:41;17.00;67.70
47338;DHT22;33069;51.970;5.892;2023-08-07T11:33:28;16.90;67.70
47338;DHT22;33069;51.970;5.892;2023-08-07T11:36:14;16.90;67.80
47338;DHT22;33069;51.970;5.892;2023-08-07T11:39:00;16.80;67.50
47338;DHT22;33069;51.970;5.892;2023-08-07T11:41:46;17.00;69.10
47338;DHT22;33069;51.970;5.892;2023-08-07T11:44:33;17.10;65.60
47338;DHT22;33069;51.970;5.892;2023-08-07T11:47:20;17.00;65.20
47338;DHT22;33069;51.970;5.892;2023-08-07T11:50:06;17.10;67.80
47338;DHT22;33069;51.970;5.892;2023-08-07T11:52:52;17.00;68.20
47338;DHT22;33069;51.970;5.892;2023-08-07T11:58:40;17.00;69.80
47338;DHT22;33069;51.970;5.892;2023-08-07T12:01:27;16.90;70.90
47338;DHT22;33069;51.970;5.892;2023-08-07T12:04:13;16.60;71.10
47338;DHT22;33069;51.970;5.892;2023-08-07T12:06:59;17.00;69.40
47338;DHT22;33069;51.970;5.892;2023-08-07T12:09:47;17.20;69.60
47338;DHT22;33069;51.970;5.892;2023-08-07T12:12:37;17.00;66.60
47338;DHT22;33069;51.970;5.892;2023-08-07T12:15:23;16.90;64.60
47338;DHT22;33069;51.970;5.892;2023-08-07T12:18:09;17.00;66.70
47338;DHT22;33069;51.970;5.892;2023-08-07T12:21:02;17.10;66.30
47338;DHT22;33069;51.970;5.892;2023-08-07T12:23:50;17.30;65.10
47338;DHT22;33069;51.970;5.892;2023-08-07T12:26:36;17.30;65.10
47338;DHT22;33069;51.970;5.892;2023-08-07T12:29:22;17.20;66.40
47338;DHT22;33069;51.970;5.892;2023-08-07T12:32:10;17.50;65.50
47338;DHT22;33069;51.970;5.892;2023-08-07T12:34:56;17.80;64.50
47338;DHT22;33069;51.970;5.892;2023-08-07T12:37:42;17.60;66.20
47338;DHT22;33069;51.970;5.892;2023-08-07T12:40:28;17.80;65.00
47338;DHT22;33069;51.970;5.892;2023-08-07T12:43:14;18.00;64.70
47338;DHT22;33069;51.970;5.892;2023-08-07T12:46:00;18.10;61.10
47338;DHT22;33069;51.970;5.892;2023-08-07T12:48:47;17.60;62.00
47338;DHT22;33069;51.970;5.892;2023-08-07T12:51:33;17.70;61.20
47338;DHT22;33069;51.970;5.892;2023-08-07T12:54:19;17.70;57.40
47338;DHT22;33069;51.970;5.892;2023-08-07T12:57:05;17.60;59.40
47338;DHT22;33069;51.970;5.892;2023-08-07T12:59:51;17.50;59.20
47338;DHT22;33069;51.970;5.892;2023-08-07T13:02:37;17.50;57.20
47338;DHT22;33069;51.970;5.892;2023-08-07T13:05:23;17.80;60.40
47338;DHT22;33069;51.970;5.892;2023-08-07T13:08:09;17.80;62.10
47338;DHT22;33069;51.970;5.892;2023-08-07T13:10:55;17.90;63.20
47338;DHT22;33069;51.970;5.892;2023-08-07T13:13:41;18.10;62.60
47338;DHT22;33069;51.970;5.892;2023-08-07T13:16:27;18.40;63.30
47338;DHT22;33069;51.970;5.892;2023-08-07T13:19:13;18.40;62.20
47338;DHT22;33069;51.970;5.892;2023-08-07T13:21:59;18.50;62.30
47338;DHT22;33069;51.970;5.892;2023-08-07T13:24:44;18.20;58.30
47338;DHT22;33069;51.970;5.892;2023-08-07T13:27:34;18.80;60.70
47338;DHT22;33069;51.970;5.892;2023-08-07T13:30:21;18.70;59.70
47338;DHT22;33069;51.970;5.892;2023-08-07T13:33:07;18.90;56.90
47338;DHT22;33069;51.970;5.892;2023-08-07T13:35:53;18.80;56.70
47338;DHT22;33069;51.970;5.892;2023-08-07T13:38:38;19.10;57.50
47338;DHT22;33069;51.970;5.892;2023-08-07T13:41:24;19.10;55.90
47338;DHT22;33069;51.970;5.892;2023-08-07T13:44:10;18.60;55.20
47338;DHT22;33069;51.970;5.892;2023-08-07T13:46:57;18.20;55.00
47338;DHT22;33069;51.970;5.892;2023-08-07T13:49:43;18.20;54.70
47338;DHT22;33069;51.970;5.892;2023-08-07T13:52:29;18.10;55.90
47338;DHT22;33069;51.970;5.892;2023-08-07T13:55:15;17.80;56.20
47338;DHT22;33069;51.970;5.892;2023-08-07T13:58:01;17.50;56.30
47338;DHT22;33069;51.970;5.892;2023-08-07T14:00:47;17.40;57.90
47338;DHT22;33069;51.970;5.892;2023-08-07T14:03:34;17.50;59.20
47338;DHT22;33069;51.970;5.892;2023-08-07T14:06:20;17.70;59.30
47338;DHT22;33069;51.970;5.892;2023-08-07T14:09:06;18.20;57.40
47338;DHT22;33069;51.970;5.892;2023-08-07T14:11:55;18.60;54.40
47338;DHT22;33069;51.970;5.892;2023-08-07T14:14:42;18.50;53.90
47338;DHT22;33069;51.970;5.892;2023-08-07T14:17:28;18.40;52.70
47338;DHT22;33069;51.970;5.892;2023-08-07T14:20:14;18.50;54.60
47338;DHT22;33069;51.970;5.892;2023-08-07T14:23:00;18.40;53.50
47338;DHT22;33069;51.970;5.892;2023-08-07T14:25:46;18.90;54.20
47338;DHT22;33069;51.970;5.892;2023-08-07T14:28:34;19.20;54.00
47338;DHT22;33069;51.970;5.892;2023-08-07T14:31:20;19.10;51.70
47338;DHT22;33069;51.970;5.892;2023-08-07T14:34:06;19.00;53.70
47338;DHT22;33069;51.970;5.892;2023-08-07T14:36:53;19.20;52.50
47338;DHT22;33069;51.970;5.892;2023-08-07T14:39:40;19.20;51.60
47338;DHT22;33069;51.970;5.892;2023-08-07T14:42:25;18.70;50.90
47338;DHT22;33069;51.970;5.892;2023-08-07T14:45:12;18.90;51.70
47338;DHT22;33069;51.970;5.892;2023-08-07T14:47:58;19.10;50.50
47338;DHT22;33069;51.970;5.892;2023-08-07T14:50:44;18.60;50.70
47338;DHT22;33069;51.970;5.892;2023-08-07T14:53:30;18.50;52.60
47338;DHT22;33069;51.970;5.892;2023-08-07T14:56:16;18.40;51.20
47338;DHT22;33069;51.970;5.892;2023-08-07T14:59:01;19.00;50.50
47338;DHT22;33069;51.970;5.892;2023-08-07T15:01:47;19.20;50.60
47338;DHT22;33069;51.970;5.892;2023-08-07T15:04:33;19.10;51.60
47338;DHT22;33069;51.970;5.892;2023-08-07T15:07:19;18.50;52.00
47338;DHT22;33069;51.970;5.892;2023-08-07T15:10:07;18.60;51.60
47338;DHT22;33069;51.970;5.892;2023-08-07T15:12:53;18.30;53.50
47338;DHT22;33069;51.970;5.892;2023-08-07T15:15:39;18.90;51.60
47338;DHT22;33069;51.970;5.892;2023-08-07T15:18:25;18.80;52.90
47338;DHT22;33069;51.970;5.892;2023-08-07T15:21:11;18.50;53.00
47338;DHT22;33069;51.970;5.892;2023-08-07T15:23:57;18.60;52.90
47338;DHT22;33069;51.970;5.892;2023-08-07T15:26:43;18.30;53.00
47338;DHT22;33069;51.970;5.892;2023-08-07T15:29:29;18.10;54.40
47338;DHT22;33069;51.970;5.892;2023-08-07T15:32:15;18.50;54.80
47338;DHT22;33069;51.970;5.892;2023-08-07T15:35:04;18.90;52.00
47338;DHT22;33069;51.970;5.892;2023-08-07T15:37:50;18.70;51.30
47338;DHT22;33069;51.970;5.892;2023-08-07T15:40:38;18.20;54.80
47338;DHT22;33069;51.970;5.892;2023-08-07T15:43:24;18.00;55.90
47338;DHT22;33069;51.970;5.892;2023-08-07T15:46:10;18.40;56.30
47338;DHT22;33069;51.970;5.892;2023-08-07T15:48:56;18.90;54.10
47338;DHT22;33069;51.970;5.892;2023-08-07T15:51:42;18.60;57.10
47338;DHT22;33069;51.970;5.892;2023-08-07T15:54:28;18.60;55.70
47338;DHT22;33069;51.970;5.892;2023-08-07T15:57:14;18.40;55.40
47338;DHT22;33069;51.970;5.892;2023-08-07T16:00:00;18.20;57.40
47338;DHT22;33069;51.970;5.892;2023-08-07T16:02:46;18.40;55.90
47338;DHT22;33069;51.970;5.892;2023-08-07T16:05:33;18.50;56.90
47338;DHT22;33069;51.970;5.892;2023-08-07T16:08:19;18.50;57.50
47338;DHT22;33069;51.970;5.892;2023-08-07T16:11:05;18.10;58.20
47338;DHT22;33069;51.970;5.892;2023-08-07T16:13:51;18.00;60.90
47338;DHT22;33069;51.970;5.892;2023-08-07T16:16:38;17.70;63.60
47338;DHT22;33069;51.970;5.892;2023-08-07T16:19:24;17.70;64.60
47338;DHT22;33069;51.970;5.892;2023-08-07T16:22:10;17.70;66.00
47338;DHT22;33069;51.970;5.892;2023-08-07T16:24:56;17.60;66.90
47338;DHT22;33069;51.970;5.892;2023-08-07T16:27:42;17.50;67.40
47338;DHT22;33069;51.970;5.892;2023-08-07T16:30:28;18.00;65.60
47338;DHT22;33069;51.970;5.892;2023-08-07T16:33:14;18.10;64.50
47338;DHT22;33069;51.970;5.892;2023-08-07T16:36:00;18.10;64.70
47338;DHT22;33069;51.970;5.892;2023-08-07T16:38:46;17.80;64.80
47338;DHT22;33069;51.970;5.892;2023-08-07T16:41:34;17.70;65.70
47338;DHT22;33069;51.970;5.892;2023-08-07T16:44:20;17.50;66.40
47338;DHT22;33069;51.970;5.892;2023-08-07T16:47:06;17.50;66.20
47338;DHT22;33069;51.970;5.892;2023-08-07T16:49:52;17.30;66.30
47338;DHT22;33069;51.970;5.892;2023-08-07T16:52:38;17.10;67.10
47338;DHT22;33069;51.970;5.892;2023-08-07T16:55:24;17.20;67.80
47338;DHT22;33069;51.970;5.892;2023-08-07T16:58:10;16.90;68.40
47338;DHT22;33069;51.970;5.892;2023-08-07T17:00:56;17.20;68.40
47338;DHT22;33069;51.970;5.892;2023-08-07T17:03:43;17.80;67.40
47338;DHT22;33069;51.970;5.892;2023-08-07T17:06:29;17.40;67.40
47338;DHT22;33069;51.970;5.892;2023-08-07T17:09:17;17.40;67.60
47338;DHT22;33069;51.970;5.892;2023-08-07T17:12:05;17.30;67.80
47338;DHT22;33069;51.970;5.892;2023-08-07T17:14:51;17.10;68.50
47338;DHT22;33069;51.970;5.892;2023-08-07T17:17:37;17.00;68.10
47338;DHT22;33069;51.970;5.892;2023-08-07T17:20:23;17.10;68.00
47338;DHT22;33069;51.970;5.892;2023-08-07T17:23:09;17.10;68.50
47338;DHT22;33069;51.970;5.892;2023-08-07T17:25:55;17.00;69.00
47338;DHT22;33069;51.970;5.892;2023-08-07T17:28:41;17.00;68.70
47338;DHT22;33069;51.970;5.892;2023-08-07T17:31:28;16.90;68.50
47338;DHT22;33069;51.970;5.892;2023-08-07T17:34:14;17.30;67.50
47338;DHT22;33069;51.970;5.892;2023-08-07T17:37:01;17.50;66.70